Time;durP1;ratioP1;P1;durP2;ratioP2;P2;SDS_P1;SDS_P2;PMS_P1;PMS_P2;Temp;Humidity;BMP_temperature;BMP_pressure;BME280_temperature;BME280_humidity;BME280_pressure;Samples;Min_cycle;Max_cycle;Signal;HPM_P1;HPM_P2
2023/11/25 00:00:48;;;;;;;0.40;0.40;;;7.40;99.90;;;;;;5006202;28;20576;-87
2023/11/25 00:03:15;;;;;;;0.23;0.23;;;7.50;99.90;;;;;;4984647;28;20249;-87
2023/11/25 00:05:41;;;;;;;0.20;0.20;;;7.80;99.90;;;;;;4977035;28;20202;-87
2023/11/25 00:08:07;;;;;;;3.30;1.30;;;7.80;99.90;;;;;;4970424;28;20184;-87
2023/11/25 00:10:34;;;;;;;1.43;1.43;;;7.60;99.90;;;;;;4948350;28;20247;-86
2023/11/25 00:13:03;;;;;;;4.60;0.50;;;7.40;99.90;;;;;;4977333;28;20274;-87
2023/11/25 00:15:29;;;;;;;0.40;0.33;;;7.60;99.90;;;;;;4973112;28;20226;-86
2023/11/25 00:17:56;;;;;;;4.47;0.97;;;7.70;99.90;;;;;;4988498;28;20219;-87
2023/11/25 00:20:25;;;;;;;0.30;0.30;;;7.60;99.90;;;;;;4989483;28;20207;-87
2023/11/25 00:22:52;;;;;;;0.20;0.20;;;7.50;99.90;;;;;;4973256;28;20258;-87
2023/11/25 00:25:18;;;;;;;1.10;0.40;;;7.40;99.90;;;;;;4978615;28;20249;-88
2023/11/25 00:27:47;;;;;;;0.77;0.50;;;7.30;99.90;;;;;;4956949;28;20241;-87
2023/11/25 00:30:15;;;;;;;0.87;0.30;;;7.10;99.90;;;;;;4988140;28;20249;-87
2023/11/25 00:32:41;;;;;;;0.10;0.10;;;6.90;99.90;;;;;;4980869;28;20695;-86
2023/11/25 00:35:10;;;;;;;1.77;0.73;;;6.90;99.90;;;;;;5006276;28;20187;-87
2023/11/25 00:37:37;;;;;;;1.23;1.13;;;7.00;99.90;;;;;;5004800;28;20211;-87
2023/11/25 00:40:10;;;;;;;1.07;1.00;;;6.90;99.90;;;;;;5005827;28;20241;-88
2023/11/25 00:42:41;;;;;;;0.20;0.20;;;6.90;99.90;;;;;;4986142;28;20334;-89
2023/11/25 00:45:09;;;;;;;0.20;0.20;;;7.00;99.90;;;;;;4976703;28;20215;-88
2023/11/25 00:47:36;;;;;;;0.50;0.50;;;7.10;99.90;;;;;;4978155;28;20632;-88
2023/11/25 00:50:05;;;;;;;0.20;0.20;;;7.20;99.90;;;;;;4971820;28;20580;-88
2023/11/25 00:52:31;;;;;;;2.33;0.40;;;7.30;99.90;;;;;;4988967;28;20223;-87
2023/11/25 00:54:57;;;;;;;0.30;0.30;;;7.50;99.90;;;;;;4987996;28;20222;-87
2023/11/25 00:57:23;;;;;;;0.30;0.30;;;7.60;99.90;;;;;;4956495;28;20317;-87
2023/11/25 00:59:49;;;;;;;0.20;0.20;;;7.40;99.90;;;;;;4951653;28;20250;-87
2023/11/25 01:02:15;;;;;;;0.70;0.70;;;7.30;99.90;;;;;;4966364;28;20192;-88
2023/11/25 01:04:41;;;;;;;0.10;0.10;;;7.30;99.90;;;;;;4952804;28;20676;-87
2023/11/25 01:07:07;;;;;;;0.20;0.20;;;7.50;99.90;;;;;;4984246;28;20226;-88
2023/11/25 01:09:34;;;;;;;0.53;0.43;;;7.50;99.90;;;;;;4987516;28;20250;-86
2023/11/25 01:12:00;;;;;;;0.50;0.50;;;7.50;99.90;;;;;;4988378;28;20326;-88
2023/11/25 01:14:27;;;;;;;0.20;0.20;;;7.50;99.90;;;;;;4988200;28;20286;-88
2023/11/25 01:16:53;;;;;;;0.87;0.60;;;7.50;99.90;;;;;;4971533;28;20192;-86
2023/11/25 01:19:19;;;;;;;0.30;0.30;;;7.50;99.90;;;;;;5003918;28;20274;-88
2023/11/25 01:21:44;;;;;;;0.20;0.20;;;7.70;99.90;;;;;;4988002;28;20226;-86
2023/11/25 01:24:11;;;;;;;0.43;0.43;;;7.70;99.90;;;;;;4988154;28;20242;-85
2023/11/25 01:26:41;;;;;;;0.83;0.83;;;7.80;99.90;;;;;;4987300;28;20187;-87
2023/11/25 01:29:06;;;;;;;0.20;0.20;;;8.00;99.90;;;;;;4989082;28;20191;-88
2023/11/25 01:31:33;;;;;;;0.20;0.20;;;7.90;99.90;;;;;;4968684;28;20224;-88
2023/11/25 01:33:58;;;;;;;0.20;0.20;;;7.90;99.90;;;;;;4965318;28;20227;-88
2023/11/25 01:36:26;;;;;;;0.17;0.17;;;7.80;99.90;;;;;;4983591;28;20729;-86
2023/11/25 01:38:52;;;;;;;0.20;0.20;;;7.60;99.90;;;;;;4984015;28;20257;-86
2023/11/25 01:41:18;;;;;;;0.27;0.27;;;7.60;99.90;;;;;;4985272;28;20241;-88
2023/11/25 01:43:44;;;;;;;0.73;0.73;;;7.60;99.90;;;;;;4989511;28;20678;-87
2023/11/25 01:46:18;;;;;;;0.20;0.20;;;7.50;99.90;;;;;;5006812;28;20219;-88
2023/11/25 01:48:44;;;;;;;1.70;1.60;;;7.50;99.90;;;;;;4981204;28;20211;-87
2023/11/25 01:51:10;;;;;;;0.30;0.20;;;7.50;99.90;;;;;;4989130;28;20223;-88
2023/11/25 01:53:38;;;;;;;1.53;1.50;;;7.50;99.90;;;;;;4958961;28;20202;-88
2023/11/25 01:56:05;;;;;;;0.30;0.30;;;7.40;99.90;;;;;;4975453;28;20765;-85
2023/11/25 01:58:32;;;;;;;2.30;1.80;;;7.30;99.90;;;;;;4995040;28;20337;-85
2023/11/25 02:00:58;;;;;;;9.13;1.13;;;7.50;99.90;;;;;;5010000;28;20226;-89
2023/11/25 02:03:25;;;;;;;3.83;1.60;;;7.40;99.90;;;;;;5026613;28;20230;-88
2023/11/25 02:05:51;;;;;;;0.20;0.20;;;7.60;99.90;;;;;;5011231;28;20215;-88
2023/11/25 02:08:16;;;;;;;0.77;0.77;;;7.60;99.90;;;;;;5026873;28;20216;-88
2023/11/25 02:10:42;;;;;;;0.63;0.63;;;7.80;99.90;;;;;;5007469;28;20222;-87
2023/11/25 02:13:08;;;;;;;1.00;0.90;;;7.80;99.90;;;;;;5002158;28;21119;-88
2023/11/25 02:15:40;;;;;;;0.40;0.40;;;7.70;99.90;;;;;;5026184;28;20230;-88
2023/11/25 02:18:07;;;;;;;1.70;1.70;;;7.70;99.90;;;;;;5010042;28;20674;-88
2023/11/25 02:20:35;;;;;;;0.20;0.20;;;7.50;99.90;;;;;;5010658;28;20728;-88
2023/11/25 02:23:02;;;;;;;3.10;0.93;;;7.40;99.90;;;;;;5019196;28;20187;-86
2023/11/25 02:25:28;;;;;;;0.20;0.20;;;7.30;99.90;;;;;;5018154;28;20230;-88
2023/11/25 02:27:55;;;;;;;0.20;0.20;;;7.30;99.90;;;;;;5019851;28;20218;-88
2023/11/25 02:30:23;;;;;;;0.20;0.20;;;7.40;99.90;;;;;;5010296;28;20210;-88
2023/11/25 02:32:53;;;;;;;0.57;0.50;;;7.50;99.90;;;;;;5025891;28;20222;-87
2023/11/25 02:35:20;;;;;;;0.20;0.20;;;7.30;99.90;;;;;;5010683;28;20207;-87
2023/11/25 02:37:46;;;;;;;0.43;0.43;;;7.10;99.90;;;;;;5009432;28;20219;-87
2023/11/25 02:40:16;;;;;;;0.20;0.20;;;7.10;99.90;;;;;;5027372;28;20238;-89
2023/11/25 02:42:47;;;;;;;0.20;0.20;;;7.10;99.90;;;;;;5017927;28;20222;-89
2023/11/25 02:45:22;;;;;;;0.20;0.20;;;7.10;99.90;;;;;;5025806;28;20214;-86
2023/11/25 02:47:51;;;;;;;0.20;0.20;;;7.10;99.90;;;;;;5010945;28;20214;-87
2023/11/25 02:50:18;;;;;;;0.40;0.40;;;7.10;99.90;;;;;;5025519;28;20629;-89
2023/11/25 02:52:48;;;;;;;0.40;0.40;;;7.20;99.90;;;;;;5020290;28;20218;-87
2023/11/25 02:55:14;;;;;;;23.37;0.80;;;7.10;99.90;;;;;;5027640;28;20223;-87
2023/11/25 02:57:43;;;;;;;0.50;0.50;;;6.90;99.90;;;;;;5009769;28;20601;-88
2023/11/25 03:03:00;;;;;;;0.63;0.63;;;6.50;99.90;;;;;;5009048;28;20617;-89
2023/11/25 03:05:31;;;;;;;0.50;0.50;;;6.40;99.90;;;;;;4995258;28;20183;-88
2023/11/25 03:07:57;;;;;;;1.17;1.17;;;6.40;99.90;;;;;;5011540;28;20189;-87
2023/11/25 03:10:30;;;;;;;0.20;0.20;;;6.40;99.90;;;;;;4993876;28;20214;-86
2023/11/25 03:12:56;;;;;;;0.20;0.20;;;6.40;99.90;;;;;;5001891;28;20777;-87
2023/11/25 03:15:21;;;;;;;0.20;0.20;;;6.90;99.90;;;;;;4988155;28;20305;-86
2023/11/25 03:17:47;;;;;;;1.50;1.40;;;7.00;99.90;;;;;;4982885;28;20237;-85
2023/11/25 03:20:13;;;;;;;0.20;0.20;;;7.10;99.90;;;;;;4999021;28;20213;-86
2023/11/25 03:22:39;;;;;;;0.50;0.50;;;7.00;99.90;;;;;;4984178;28;20737;-87
2023/11/25 03:25:06;;;;;;;0.20;0.20;;;7.10;99.90;;;;;;4981361;28;20223;-85
2023/11/25 03:27:32;;;;;;;0.20;0.20;;;7.20;99.90;;;;;;4992735;28;20215;-88
2023/11/25 03:29:58;;;;;;;0.17;0.17;;;7.20;99.90;;;;;;4970988;28;20218;-86
2023/11/25 03:32:25;;;;;;;0.20;0.20;;;7.40;99.90;;;;;;4992598;28;20236;-86
2023/11/25 03:34:51;;;;;;;0.30;0.30;;;7.40;99.90;;;;;;5027438;28;20219;-86
2023/11/25 03:37:18;;;;;;;2.00;1.77;;;7.50;99.90;;;;;;4976204;28;20692;-87
2023/11/25 03:39:46;;;;;;;0.17;0.17;;;7.60;99.90;;;;;;4989033;28;20230;-87
2023/11/25 03:42:12;;;;;;;0.63;0.63;;;7.60;99.90;;;;;;4967701;28;20224;-87
2023/11/25 03:44:38;;;;;;;0.13;0.13;;;7.70;99.90;;;;;;4988656;28;20190;-89
2023/11/25 03:47:04;;;;;;;0.20;0.20;;;7.80;99.90;;;;;;4988056;28;20590;-87
2023/11/25 03:49:30;;;;;;;0.10;0.10;;;8.00;99.90;;;;;;4987979;28;20223;-87
2023/11/25 03:51:56;;;;;;;0.20;0.20;;;7.90;99.90;;;;;;4988785;28;20219;-88
2023/11/25 03:54:22;;;;;;;0.17;0.17;;;7.70;99.90;;;;;;4989036;28;20219;-88
2023/11/25 03:56:48;;;;;;;0.10;0.10;;;7.80;99.90;;;;;;4987405;28;20234;-87
2023/11/25 03:59:14;;;;;;;1.03;0.40;;;7.90;99.90;;;;;;4999095;28;20238;-88
2023/11/25 04:01:43;;;;;;;0.30;0.30;;;8.00;99.90;;;;;;4974508;28;20292;-88
2023/11/25 04:04:10;;;;;;;0.93;0.67;;;8.00;99.90;;;;;;5005236;28;20241;-88
2023/11/25 04:06:36;;;;;;;0.73;0.63;;;8.10;99.90;;;;;;5026294;28;20249;-88
2023/11/25 04:09:02;;;;;;;0.60;0.60;;;8.10;99.90;;;;;;5026122;28;20540;-89
2023/11/25 04:11:28;;;;;;;0.40;0.30;;;8.00;99.90;;;;;;5024608;28;20241;-87
2023/11/25 04:13:57;;;;;;;0.73;0.73;;;8.00;99.90;;;;;;5018159;28;20563;-87
2023/11/25 04:16:23;;;;;;;0.10;0.10;;;7.90;99.90;;;;;;5019197;28;20225;-88
2023/11/25 04:18:49;;;;;;;0.30;0.30;;;7.90;99.90;;;;;;5016883;28;20218;-87
2023/11/25 04:21:15;;;;;;;0.87;0.50;;;7.90;99.90;;;;;;5009783;28;20797;-87
2023/11/25 04:23:41;;;;;;;0.10;0.10;;;7.90;99.90;;;;;;5009038;28;20191;-88
2023/11/25 04:26:07;;;;;;;0.13;0.13;;;8.10;99.90;;;;;;4992935;28;20249;-88
2023/11/25 04:28:33;;;;;;;0.20;0.20;;;7.90;99.90;;;;;;4998318;28;20269;-88
2023/11/25 04:30:59;;;;;;;0.33;0.33;;;7.90;99.90;;;;;;5002916;28;20225;-86
2023/11/25 04:33:25;;;;;;;4.17;2.20;;;8.10;99.90;;;;;;5021323;28;20237;-88
2023/11/25 04:35:54;;;;;;;0.40;0.40;;;8.20;99.90;;;;;;5007717;28;20610;-88
2023/11/25 04:38:19;;;;;;;2.20;0.67;;;8.00;99.90;;;;;;5008144;28;20206;-86
2023/11/25 04:40:45;;;;;;;0.27;0.27;;;8.00;99.90;;;;;;4991595;28;20352;-87
2023/11/25 04:43:11;;;;;;;0.20;0.20;;;7.90;99.90;;;;;;5000690;28;20324;-87
2023/11/25 04:45:36;;;;;;;0.20;0.20;;;8.00;99.90;;;;;;4988656;28;20660;-86
2023/11/25 04:48:03;;;;;;;0.40;0.40;;;8.00;99.90;;;;;;5020330;28;20690;-86
2023/11/25 04:50:29;;;;;;;0.33;0.30;;;7.70;99.90;;;;;;5020107;28;20590;-86
2023/11/25 04:52:55;;;;;;;0.20;0.20;;;7.20;99.90;;;;;;5020757;28;20191;-87
2023/11/25 04:55:23;;;;;;;0.20;0.20;;;6.60;99.90;;;;;;5008006;28;20389;-87
2023/11/25 04:57:49;;;;;;;0.20;0.20;;;6.40;99.90;;;;;;5006638;28;20218;-86
2023/11/25 05:00:17;;;;;;;0.20;0.20;;;6.70;99.90;;;;;;5003994;28;20231;-88
2023/11/25 05:02:42;;;;;;;0.20;0.20;;;6.90;99.90;;;;;;4996448;28;20196;-87
2023/11/25 05:05:09;;;;;;;0.20;0.20;;;7.10;99.90;;;;;;4981166;28;20203;-87
2023/11/25 05:07:35;;;;;;;0.20;0.20;;;7.40;99.90;;;;;;5013219;28;20214;-86
2023/11/25 05:10:01;;;;;;;5.80;0.60;;;7.30;99.90;;;;;;5005824;28;20226;-86
2023/11/25 05:12:27;;;;;;;0.40;0.30;;;7.10;99.90;;;;;;4983783;28;20674;-88
2023/11/25 05:14:53;;;;;;;0.20;0.20;;;7.00;99.90;;;;;;4998537;28;20281;-85
2023/11/25 05:17:19;;;;;;;0.30;0.30;;;7.00;99.90;;;;;;4961572;28;20194;-85
2023/11/25 05:19:45;;;;;;;0.20;0.20;;;7.20;99.90;;;;;;4993688;28;20731;-86
2023/11/25 05:22:11;;;;;;;0.10;0.10;;;7.10;99.90;;;;;;4978000;28;20236;-87
2023/11/25 05:24:36;;;;;;;0.30;0.30;;;7.10;99.90;;;;;;4976829;28;20227;-87
2023/11/25 05:27:03;;;;;;;0.20;0.20;;;7.10;99.90;;;;;;4976665;28;20222;-86
2023/11/25 05:29:29;;;;;;;0.10;0.10;;;7.00;99.90;;;;;;5014694;28;20194;-86
2023/11/25 05:31:56;;;;;;;0.30;0.30;;;7.00;99.90;;;;;;5008919;28;20194;-86
2023/11/25 05:34:23;;;;;;;0.13;0.13;;;7.00;99.90;;;;;;4994617;28;20215;-86
2023/11/25 05:36:49;;;;;;;0.20;0.20;;;7.10;99.90;;;;;;5010160;28;20215;-86
2023/11/25 05:39:20;;;;;;;0.20;0.20;;;7.30;99.90;;;;;;5002569;28;20217;-88
2023/11/25 05:41:46;;;;;;;0.10;0.10;;;7.60;99.90;;;;;;5009418;28;20574;-89
2023/11/25 05:44:12;;;;;;;0.30;0.30;;;7.60;99.90;;;;;;4989017;28;20338;-88
2023/11/25 05:46:38;;;;;;;0.20;0.20;;;7.60;99.90;;;;;;5017906;28;20235;-86
2023/11/25 05:49:04;;;;;;;0.43;0.43;;;7.60;99.90;;;;;;4998746;28;20223;-87
2023/11/25 05:51:36;;;;;;;0.20;0.20;;;7.40;99.90;;;;;;5009697;28;20254;-87
2023/11/25 05:54:02;;;;;;;0.10;0.10;;;7.40;99.90;;;;;;4992452;28;20227;-88
2023/11/25 05:56:29;;;;;;;0.20;0.20;;;7.40;99.90;;;;;;5006072;28;20241;-86
2023/11/25 05:58:56;;;;;;;0.33;0.33;;;7.40;99.90;;;;;;4998282;28;20234;-89
2023/11/25 06:01:22;;;;;;;1.43;0.40;;;7.50;99.90;;;;;;4971134;28;20251;-90
2023/11/25 06:03:52;;;;;;;0.20;0.20;;;7.50;99.90;;;;;;4970052;28;20262;-88
2023/11/25 06:06:22;;;;;;;1.63;1.53;;;7.50;99.90;;;;;;4999490;28;20305;-88
2023/11/25 06:08:49;;;;;;;0.93;0.60;;;7.60;99.90;;;;;;4970107;28;20315;-86
2023/11/25 06:11:21;;;;;;;0.30;0.30;;;7.60;99.90;;;;;;4979534;28;20195;-88
2023/11/25 06:13:47;;;;;;;3.90;0.80;;;7.20;99.90;;;;;;4970659;28;20257;-87
2023/11/25 06:16:16;;;;;;;0.20;0.20;;;7.10;99.90;;;;;;4951176;28;20953;-86
2023/11/25 06:18:43;;;;;;;0.20;0.20;;;7.00;99.90;;;;;;4980785;28;20235;-89
2023/11/25 06:21:08;;;;;;;0.53;0.43;;;7.00;99.90;;;;;;4964590;28;20297;-88
2023/11/25 06:23:34;;;;;;;0.50;0.50;;;7.00;99.90;;;;;;4988426;28;20199;-87
2023/11/25 06:26:00;;;;;;;0.20;0.20;;;7.00;99.90;;;;;;4990118;28;20251;-88
2023/11/25 06:28:27;;;;;;;0.20;0.20;;;7.10;99.90;;;;;;5000604;28;20231;-89
2023/11/25 06:30:53;;;;;;;0.20;0.20;;;7.20;99.90;;;;;;4981581;28;20227;-87
2023/11/25 06:33:26;;;;;;;0.10;0.10;;;7.30;99.90;;;;;;4988712;28;20225;-90
2023/11/25 06:35:55;;;;;;;0.87;0.57;;;7.40;99.90;;;;;;4979394;28;20223;-88
2023/11/25 06:38:21;;;;;;;5.00;4.50;;;7.50;99.90;;;;;;4990758;28;20603;-89
2023/11/25 06:40:47;;;;;;;0.20;0.20;;;7.80;99.90;;;;;;4988991;28;20660;-88
2023/11/25 06:43:13;;;;;;;0.30;0.30;;;7.90;99.90;;;;;;4964451;28;20276;-87
2023/11/25 06:45:40;;;;;;;0.10;0.10;;;7.90;99.90;;;;;;4989455;28;21131;-88
2023/11/25 06:48:07;;;;;;;0.40;0.40;;;7.90;99.90;;;;;;4966427;28;20219;-88
2023/11/25 06:50:34;;;;;;;0.53;0.53;;;8.00;99.90;;;;;;4988724;28;20770;-88
2023/11/25 06:53:01;;;;;;;0.30;0.30;;;8.20;99.90;;;;;;4966510;28;20262;-88
2023/11/25 06:55:26;;;;;;;0.50;0.50;;;8.20;99.90;;;;;;4982145;28;20219;-88
2023/11/25 06:57:52;;;;;;;0.43;0.43;;;8.40;99.90;;;;;;4967499;28;20217;-88
2023/11/25 07:00:18;;;;;;;0.30;0.30;;;8.40;99.90;;;;;;5004885;28;21102;-89
2023/11/25 07:02:44;;;;;;;2.80;0.90;;;8.40;99.90;;;;;;4990004;28;20238;-88
2023/11/25 07:05:10;;;;;;;0.93;0.53;;;8.40;99.90;;;;;;5006010;28;20200;-89
2023/11/25 07:07:36;;;;;;;0.47;0.47;;;7.90;99.90;;;;;;4946299;28;20224;-86
2023/11/25 07:10:03;;;;;;;1.70;1.17;;;7.60;99.90;;;;;;4985810;28;20227;-85
2023/11/25 07:12:30;;;;;;;0.40;0.40;;;7.50;99.90;;;;;;4969302;28;20216;-87
2023/11/25 07:14:56;;;;;;;0.40;0.40;;;7.40;99.90;;;;;;4968437;28;20228;-89
2023/11/25 07:17:22;;;;;;;0.30;0.30;;;7.40;99.90;;;;;;4953189;28;20219;-85
2023/11/25 07:19:48;;;;;;;0.20;0.20;;;7.40;99.90;;;;;;4971799;28;20351;-88
2023/11/25 07:22:14;;;;;;;0.20;0.20;;;7.60;99.90;;;;;;4972966;28;20211;-87
2023/11/25 07:24:40;;;;;;;0.20;0.20;;;7.70;99.90;;;;;;4967141;28;20327;-88
2023/11/25 07:27:06;;;;;;;0.27;0.27;;;7.90;99.90;;;;;;4969553;28;20671;-88
2023/11/25 07:29:33;;;;;;;0.60;0.50;;;8.10;99.90;;;;;;4987520;28;20648;-87
2023/11/25 07:32:00;;;;;;;2.10;0.63;;;8.00;99.90;;;;;;5004770;28;20187;-86
2023/11/25 07:34:33;;;;;;;1.90;0.40;;;8.00;99.90;;;;;;4988511;28;20226;-87
2023/11/25 07:36:59;;;;;;;0.70;0.70;;;7.90;99.90;;;;;;4988339;28;20243;-86
2023/11/25 07:39:29;;;;;;;1.17;0.33;;;8.10;99.90;;;;;;4989371;28;20644;-87
2023/11/25 07:41:59;;;;;;;0.20;0.20;;;7.70;99.90;;;;;;5004683;28;20218;-87
2023/11/25 07:44:35;;;;;;;0.30;0.30;;;7.40;99.90;;;;;;4987327;28;20188;-85
2023/11/25 07:47:01;;;;;;;0.17;0.17;;;7.20;99.90;;;;;;4988420;28;20210;-85
2023/11/25 07:49:29;;;;;;;0.20;0.20;;;7.30;99.90;;;;;;5005256;28;20688;-86
2023/11/25 07:51:55;;;;;;;0.20;0.20;;;7.30;99.90;;;;;;4985840;28;20522;-86
2023/11/25 07:54:21;;;;;;;0.20;0.20;;;7.50;99.90;;;;;;4954343;28;20269;-83
2023/11/25 07:56:50;;;;;;;1.10;0.93;;;7.70;99.90;;;;;;4999925;28;20576;-84
2023/11/25 07:59:15;;;;;;;0.10;0.10;;;7.70;99.90;;;;;;4991954;28;20273;-83
2023/11/25 08:01:41;;;;;;;0.13;0.13;;;7.40;99.90;;;;;;4996865;28;20769;-82
2023/11/25 08:04:08;;;;;;;0.87;0.83;;;7.40;99.90;;;;;;4988551;28;20249;-83
2023/11/25 08:06:34;;;;;;;0.20;0.20;;;7.50;99.90;;;;;;4999024;28;20235;-83
2023/11/25 08:09:00;;;;;;;3.73;0.50;;;7.60;99.90;;;;;;4988087;28;20221;-82
2023/11/25 08:11:27;;;;;;;0.53;0.43;;;7.70;99.90;;;;;;5006312;28;20183;-83
2023/11/25 08:13:54;;;;;;;0.23;0.23;;;7.90;99.90;;;;;;5021072;28;20191;-82
2023/11/25 08:16:20;;;;;;;0.30;0.30;;;7.90;99.90;;;;;;5015298;28;20690;-83
2023/11/25 08:18:47;;;;;;;1.30;0.43;;;7.90;99.90;;;;;;5022418;28;20215;-83
2023/11/25 08:21:16;;;;;;;0.30;0.30;;;7.90;99.90;;;;;;5004282;28;20234;-85
2023/11/25 08:23:42;;;;;;;0.60;0.30;;;7.80;99.90;;;;;;5023374;28;20682;-84
2023/11/25 08:26:18;;;;;;;0.20;0.20;;;7.70;99.90;;;;;;5021842;28;20709;-85
2023/11/25 08:28:45;;;;;;;0.30;0.30;;;7.60;99.90;;;;;;5021492;28;20581;-84
2023/11/25 08:31:11;;;;;;;0.10;0.10;;;7.60;99.90;;;;;;5004615;28;20219;-84
2023/11/25 08:33:39;;;;;;;0.10;0.10;;;7.70;99.90;;;;;;5021551;28;20254;-83
2023/11/25 08:36:06;;;;;;;0.20;0.20;;;7.90;99.90;;;;;;5019922;28;20229;-84
2023/11/25 08:38:32;;;;;;;0.10;0.10;;;8.10;99.90;;;;;;5018888;28;20252;-85
2023/11/25 08:40:57;;;;;;;0.10;0.10;;;7.70;99.90;;;;;;5019092;28;20215;-83
2023/11/25 08:43:23;;;;;;;0.10;0.10;;;7.40;99.90;;;;;;5016436;28;20218;-85
2023/11/25 08:45:49;;;;;;;0.87;0.87;;;7.30;99.90;;;;;;5002985;28;20226;-86
2023/11/25 08:48:15;;;;;;;6.50;0.60;;;7.40;99.90;;;;;;5009842;28;21122;-85
2023/11/25 08:50:43;;;;;;;0.20;0.20;;;7.50;99.90;;;;;;5026120;28;20197;-83
2023/11/25 08:53:08;;;;;;;0.10;0.10;;;7.60;99.90;;;;;;5026370;28;20229;-84
2023/11/25 08:55:34;;;;;;;0.20;0.20;;;7.80;99.90;;;;;;5007775;28;20309;-84
2023/11/25 08:58:00;;;;;;;0.20;0.20;;;8.20;99.90;;;;;;5021296;28;20262;-85
2023/11/25 09:00:29;;;;;;;0.93;0.93;;;8.30;99.90;;;;;;4989648;28;20227;-85
2023/11/25 09:02:57;;;;;;;0.83;0.43;;;8.30;99.90;;;;;;4989064;28;20614;-82
2023/11/25 09:05:25;;;;;;;0.20;0.20;;;8.40;99.90;;;;;;4972282;28;20550;-83
2023/11/25 09:07:59;;;;;;;0.93;0.60;;;8.50;99.90;;;;;;4972839;28;20207;-84
2023/11/25 09:10:26;;;;;;;0.20;0.20;;;8.70;99.90;;;;;;5006557;28;20261;-85
2023/11/25 09:12:52;;;;;;;3.40;0.87;;;9.00;99.90;;;;;;5002512;28;20261;-85
2023/11/25 09:15:19;;;;;;;0.20;0.20;;;8.50;99.90;;;;;;4987490;28;20238;-84
2023/11/25 09:17:45;;;;;;;0.77;0.70;;;7.80;99.90;;;;;;4971429;28;20288;-85
2023/11/25 09:20:16;;;;;;;0.20;0.20;;;7.50;99.90;;;;;;4973118;28;20227;-85
2023/11/25 09:22:42;;;;;;;2.17;2.00;;;7.70;99.90;;;;;;4989087;28;20733;-85
2023/11/25 09:25:12;;;;;;;0.17;0.17;;;7.60;99.90;;;;;;4983827;28;20207;-85
2023/11/25 09:27:41;;;;;;;0.10;0.10;;;7.70;99.90;;;;;;4965111;28;20227;-84
2023/11/25 09:30:11;;;;;;;0.50;0.30;;;8.00;99.90;;;;;;4989985;28;20281;-86
2023/11/25 09:32:41;;;;;;;0.90;0.90;;;8.20;99.90;;;;;;4988820;28;20188;-84
2023/11/25 09:35:08;;;;;;;0.20;0.20;;;8.40;99.90;;;;;;4976709;28;20223;-84
2023/11/25 09:37:37;;;;;;;0.50;0.50;;;8.50;99.90;;;;;;4988021;28;20285;-84
2023/11/25 09:40:05;;;;;;;0.27;0.27;;;8.70;99.90;;;;;;4983196;28;20261;-84
2023/11/25 09:42:32;;;;;;;0.20;0.20;;;9.00;99.90;;;;;;4973215;28;20595;-84
2023/11/25 09:44:59;;;;;;;0.13;0.13;;;9.10;99.90;;;;;;5006632;28;20195;-84
2023/11/25 09:47:26;;;;;;;0.17;0.17;;;9.10;99.90;;;;;;4973112;28;20222;-84
2023/11/25 09:49:51;;;;;;;0.70;0.70;;;9.30;99.90;;;;;;4976536;28;20230;-84
2023/11/25 09:52:19;;;;;;;0.53;0.50;;;9.40;99.90;;;;;;4971471;28;20219;-85
2023/11/25 09:54:52;;;;;;;0.30;0.30;;;8.80;99.90;;;;;;5004900;28;20278;-84
2023/11/25 09:57:20;;;;;;;0.30;0.30;;;8.20;99.90;;;;;;4973137;28;20184;-85
2023/11/25 09:59:46;;;;;;;0.27;0.13;;;8.10;99.90;;;;;;5021747;28;20316;-85
2023/11/25 10:02:16;;;;;;;0.40;0.40;;;8.30;99.90;;;;;;5025559;28;20218;-84
2023/11/25 10:04:43;;;;;;;0.30;0.30;;;8.50;99.90;;;;;;5041480;28;20245;-86
2023/11/25 10:07:12;;;;;;;0.77;0.77;;;8.70;99.90;;;;;;5024989;28;20349;-85
2023/11/25 10:09:39;;;;;;;0.33;0.33;;;9.00;99.90;;;;;;5024707;28;20219;-85
2023/11/25 10:12:07;;;;;;;1.93;0.90;;;9.10;99.90;;;;;;5017028;28;20280;-84
2023/11/25 10:14:33;;;;;;;0.20;0.20;;;9.00;99.90;;;;;;5006717;28;20246;-86
2023/11/25 10:17:16;;;;;;;0.20;0.20;;;8.30;99.90;;;;;;5025716;28;20214;-86
2023/11/25 10:19:44;;;;;;;0.20;0.20;;;7.90;99.90;;;;;;5012738;28;20219;-82
2023/11/25 10:22:11;;;;;;;5.80;0.57;;;7.80;99.90;;;;;;5015887;28;20221;-83
2023/11/25 10:24:49;;;;;;;0.80;0.80;;;7.80;99.90;;;;;;5008057;28;20245;-83
2023/11/25 10:27:16;;;;;;;0.20;0.20;;;7.80;99.90;;;;;;5025070;28;20579;-84
2023/11/25 10:29:43;;;;;;;1.03;0.70;;;7.70;99.90;;;;;;5024908;28;20269;-86
2023/11/25 10:32:09;;;;;;;0.20;0.20;;;7.80;99.90;;;;;;5025432;28;20214;-84
2023/11/25 10:34:36;;;;;;;0.70;0.70;;;7.80;99.90;;;;;;5023976;28;20940;-85
2023/11/25 10:37:05;;;;;;;2.37;1.70;;;7.80;99.90;;;;;;5025878;28;20997;-84
2023/11/25 10:39:35;;;;;;;0.53;0.53;;;7.90;99.90;;;;;;5023726;28;20455;-84
2023/11/25 10:42:07;;;;;;;0.40;0.40;;;8.00;99.90;;;;;;5024452;28;20235;-85
2023/11/25 10:44:34;;;;;;;0.20;0.20;;;8.00;99.90;;;;;;5023107;28;20310;-87
2023/11/25 10:47:02;;;;;;;0.40;0.40;;;8.30;99.90;;;;;;5023863;28;20225;-85
2023/11/25 10:49:32;;;;;;;0.20;0.20;;;8.60;99.90;;;;;;5007505;28;21040;-83
2023/11/25 10:52:03;;;;;;;0.10;0.10;;;8.80;99.90;;;;;;5023135;28;21096;-84
2023/11/25 10:54:32;;;;;;;1.23;1.23;;;9.00;99.90;;;;;;5024088;28;20189;-82
2023/11/25 10:57:05;;;;;;;0.67;0.67;;;8.90;99.90;;;;;;5007645;28;20194;-85
2023/11/25 10:59:39;;;;;;;1.40;1.23;;;8.60;99.90;;;;;;5022647;28;20230;-84
2023/11/25 11:02:11;;;;;;;0.17;0.17;;;8.50;99.90;;;;;;5022805;28;20368;-84
2023/11/25 11:04:44;;;;;;;0.30;0.30;;;8.40;99.90;;;;;;5024887;28;20549;-85
2023/11/25 11:07:15;;;;;;;0.60;0.60;;;8.50;99.90;;;;;;5023891;28;20325;-84
2023/11/25 11:09:42;;;;;;;0.53;0.43;;;8.60;99.90;;;;;;5023611;28;20709;-84
2023/11/25 11:12:16;;;;;;;0.63;0.63;;;8.70;99.90;;;;;;5024125;28;20191;-84
2023/11/25 11:14:54;;;;;;;0.37;0.37;;;8.90;99.90;;;;;;5022884;28;21204;-83
2023/11/25 11:17:28;;;;;;;0.10;0.10;;;9.20;99.90;;;;;;5023474;28;20256;-83
2023/11/25 11:19:56;;;;;;;1.20;0.40;;;9.30;99.90;;;;;;5024276;28;20651;-84
2023/11/25 11:22:23;;;;;;;0.10;0.10;;;9.20;99.90;;;;;;5022935;28;20288;-84
2023/11/25 11:25:07;;;;;;;0.20;0.20;;;8.80;99.90;;;;;;5023456;28;20228;-83
2023/11/25 11:27:56;;;;;;;1.10;1.00;;;8.50;99.90;;;;;;5021962;28;20586;-84
2023/11/25 11:30:38;;;;;;;0.20;0.20;;;8.40;99.90;;;;;;5021214;28;20186;-83
2023/11/25 11:33:05;;;;;;;0.10;0.10;;;8.30;99.90;;;;;;5022335;28;20658;-81
2023/11/25 11:35:38;;;;;;;0.10;0.10;;;8.20;99.90;;;;;;4999388;28;20226;-81
2023/11/25 11:38:30;;;;;;;0.10;0.10;;;8.10;99.90;;;;;;5040311;28;20214;-83
2023/11/25 11:41:06;;;;;;;1.80;0.87;;;8.00;99.90;;;;;;5021585;28;20218;-86
2023/11/25 11:43:32;;;;;;;0.20;0.20;;;7.90;99.90;;;;;;5000716;28;20222;-84
2023/11/25 11:45:58;;;;;;;0.20;0.20;;;8.00;99.90;;;;;;5004845;28;20560;-83
2023/11/25 11:48:30;;;;;;;0.73;0.70;;;8.20;99.90;;;;;;4999595;28;20193;-84
2023/11/25 11:50:57;;;;;;;1.40;1.30;;;8.40;99.90;;;;;;5021509;28;20233;-85
2023/11/25 11:53:25;;;;;;;1.57;1.23;;;8.70;99.90;;;;;;5023400;28;20280;-83
2023/11/25 11:55:53;;;;;;;0.20;0.20;;;8.80;99.90;;;;;;5021296;28;20674;-85
2023/11/25 11:58:26;;;;;;;0.50;0.50;;;8.80;99.90;;;;;;5019411;28;20241;-84
2023/11/25 12:01:02;;;;;;;0.83;0.43;;;8.80;99.90;;;;;;5020548;28;20838;-84
2023/11/25 12:03:30;;;;;;;0.20;0.20;;;8.80;99.90;;;;;;5038729;28;20209;-84
2023/11/25 12:05:56;;;;;;;0.10;0.10;;;8.90;99.90;;;;;;5016054;28;20213;-83
2023/11/25 12:08:22;;;;;;;0.43;0.23;;;9.00;99.90;;;;;;5022840;28;20671;-82
2023/11/25 12:10:49;;;;;;;0.10;0.10;;;9.00;99.90;;;;;;5023736;28;20717;-83
2023/11/25 12:13:37;;;;;;;14.83;0.83;;;8.90;99.90;;;;;;4996776;28;20297;-84
2023/11/25 12:16:03;;;;;;;0.20;0.20;;;9.00;99.90;;;;;;5013568;28;20260;-83
2023/11/25 12:18:31;;;;;;;0.10;0.10;;;8.80;99.90;;;;;;5020408;28;20531;-81
2023/11/25 12:21:02;;;;;;;5.33;1.07;;;8.50;99.90;;;;;;5013446;28;20233;-82
2023/11/25 12:23:28;;;;;;;0.20;0.20;;;8.40;99.90;;;;;;5015069;28;20222;-82
2023/11/25 12:25:56;;;;;;;2.23;1.90;;;8.30;99.90;;;;;;5012683;28;20224;-83
2023/11/25 12:28:23;;;;;;;2.20;0.33;;;8.10;99.90;;;;;;5017914;28;20407;-83
2023/11/25 12:30:53;;;;;;;0.20;0.20;;;8.30;99.90;;;;;;5025299;28;20218;-84
2023/11/25 12:33:19;;;;;;;0.10;0.10;;;8.50;99.90;;;;;;5061910;28;20627;-84
2023/11/25 12:35:45;;;;;;;0.20;0.20;;;8.70;99.90;;;;;;5022044;28;20244;-86
2023/11/25 12:38:13;;;;;;;0.73;0.73;;;8.90;99.90;;;;;;5003333;28;20324;-86
2023/11/25 12:40:44;;;;;;;0.17;0.17;;;9.10;99.90;;;;;;5004969;28;20227;-86
2023/11/25 12:43:13;;;;;;;1.03;1.03;;;9.30;99.90;;;;;;5004333;28;20218;-87
2023/11/25 12:45:43;;;;;;;0.27;0.17;;;9.50;99.90;;;;;;5005555;28;20229;-87
2023/11/25 12:48:12;;;;;;;0.33;0.33;;;9.50;99.90;;;;;;5004138;28;20182;-89
2023/11/25 12:51:07;;;;;;;1.03;1.03;;;9.70;99.90;;;;;;5019341;28;20226;-87
2023/11/25 12:53:34;;;;;;;0.10;0.10;;;9.60;99.90;;;;;;5018253;28;20548;-88
2023/11/25 12:56:01;;;;;;;0.17;0.17;;;9.40;99.90;;;;;;5019576;28;20214;-87
2023/11/25 12:58:27;;;;;;;0.30;0.30;;;9.50;99.90;;;;;;5019132;28;20243;-88
2023/11/25 13:00:57;;;;;;;0.20;0.20;;;9.60;99.90;;;;;;5020055;28;20260;-88
2023/11/25 13:03:25;;;;;;;0.40;0.40;;;9.60;99.90;;;;;;5003484;28;20186;-88